createdAt,value
2018-07-13T00:01:43.070Z,99516.64
2018-07-13T00:04:45.453Z,99505.69
2018-07-13T00:07:47.866Z,99508.23
2018-07-13T00:10:50.287Z,99515.66
2018-07-13T00:14:17.415Z,99516.36
2018-07-13T00:17:19.904Z,99513.80
2018-07-13T00:20:22.321Z,99514.31
2018-07-13T00:23:24.725Z,99524.93
2018-07-13T00:26:27.116Z,99521.41
2018-07-13T00:29:29.417Z,99525.66
2018-07-13T00:32:32.027Z,99531.92
2018-07-13T00:35:34.541Z,99528.14
2018-07-13T00:38:36.925Z,99540.43
2018-07-13T00:41:39.388Z,99546.00
2018-07-13T00:44:41.689Z,99551.09
2018-07-13T00:47:44.135Z,99553.58
2018-07-13T00:50:46.400Z,99553.28
2018-07-13T00:53:48.766Z,99558.39
2018-07-13T00:56:51.250Z,99566.66
2018-07-13T00:59:53.686Z,99580.42
2018-07-13T01:02:56.200Z,99587.48
2018-07-13T01:05:58.893Z,99593.72
2018-07-13T01:09:01.338Z,99598.63
2018-07-13T01:12:03.881Z,99605.52
2018-07-13T01:15:06.526Z,99610.14
2018-07-13T01:18:08.974Z,99609.80
2018-07-13T01:21:11.410Z,99608.81
2018-07-13T01:24:13.913Z,99614.55
2018-07-13T01:27:16.318Z,99628.34
2018-07-13T01:30:18.795Z,99623.56
2018-07-13T01:33:21.293Z,99627.20
2018-07-13T01:36:23.772Z,99637.03
2018-07-13T01:39:26.097Z,99638.02
2018-07-13T01:42:28.458Z,99637.86
2018-07-13T01:45:30.931Z,99648.69
2018-07-13T01:48:33.444Z,99651.64
2018-07-13T01:51:35.854Z,99655.91
2018-07-13T01:54:38.193Z,99658.20
2018-07-13T01:57:40.615Z,99663.59
2018-07-13T02:00:42.893Z,99673.11
2018-07-13T02:03:45.247Z,99675.08
2018-07-13T02:06:47.855Z,99677.04
2018-07-13T02:09:52.550Z,99685.89
2018-07-13T02:12:54.950Z,99685.06
2018-07-13T02:15:57.273Z,99684.90
2018-07-13T02:18:59.618Z,99684.40
2018-07-13T02:22:02.053Z,99696.03
2018-07-13T02:25:04.845Z,99706.84
2018-07-13T02:28:07.158Z,99715.70
2018-07-13T02:31:09.552Z,99716.20
2018-07-13T02:34:11.971Z,99718.65
2018-07-13T02:37:14.344Z,99734.86
2018-07-13T02:40:16.633Z,99735.02
2018-07-13T02:43:19.168Z,99743.21
2018-07-13T02:46:21.545Z,99743.88
2018-07-13T02:49:24.002Z,99754.20
2018-07-13T02:52:26.485Z,99750.13
2018-07-13T02:55:32.518Z,99773.57
2018-07-13T02:58:34.933Z,99769.47
2018-07-13T03:01:38.282Z,99785.20
2018-07-13T03:04:45.418Z,99793.05
2018-07-13T03:07:48.955Z,99789.56
2018-07-13T03:10:53.525Z,99803.44
2018-07-13T03:13:56.225Z,99817.16
2018-07-13T03:17:05.138Z,99823.53
2018-07-13T03:20:08.942Z,99821.42
2018-07-13T03:23:25.513Z,99824.23
2018-07-13T03:26:28.036Z,99837.98
2018-07-13T03:29:30.398Z,99843.67
2018-07-13T03:32:32.821Z,99856.44
2018-07-13T03:35:35.299Z,99862.53
2018-07-13T03:38:37.823Z,99865.34
2018-07-13T03:41:40.195Z,99880.63
2018-07-13T03:44:42.737Z,99872.31
2018-07-13T03:47:45.140Z,99885.80
2018-07-13T03:50:48.508Z,99890.25
2018-07-13T03:53:51.118Z,99916.36
2018-07-13T03:56:53.675Z,99864.42
2018-07-13T03:59:57.092Z,99836.64
2018-07-13T04:02:59.623Z,99815.03
2018-07-13T04:06:02.253Z,99793.44
2018-07-13T04:09:07.177Z,99780.68
2018-07-13T04:12:09.603Z,99776.45
2018-07-13T04:15:11.965Z,99770.25
2018-07-13T04:18:19.199Z,99783.86
2018-07-13T04:21:21.593Z,99796.15
2018-07-13T04:24:24.062Z,99796.94
2018-07-13T04:27:26.622Z,99794.99
2018-07-13T04:30:29.188Z,99807.45
2018-07-13T04:33:31.794Z,99798.96
2018-07-13T04:36:34.415Z,99800.53
2018-07-13T04:39:36.880Z,99802.79
2018-07-13T04:42:39.320Z,99795.74
2018-07-13T04:45:41.946Z,99789.95
2018-07-13T04:48:44.585Z,99778.46
2018-07-13T04:51:47.123Z,99901.41
2018-07-13T04:54:49.469Z,99827.39
2018-07-13T04:57:52.046Z,99793.08
2018-07-13T05:00:54.411Z,99683.07
2018-07-13T05:03:56.954Z,99874.26
2018-07-13T05:06:59.346Z,99732.73
2018-07-13T05:10:01.956Z,99688.02
2018-07-13T05:13:04.296Z,99675.05
2018-07-13T05:16:06.739Z,99675.13
2018-07-13T05:19:09.122Z,99666.55
2018-07-13T05:22:11.659Z,99659.05
2018-07-13T05:25:14.213Z,99661.47
2018-07-13T05:28:16.792Z,99651.39
2018-07-13T05:31:19.273Z,99639.17
2018-07-13T05:34:21.866Z,99637.71
2018-07-13T05:37:24.575Z,99638.03
2018-07-13T05:40:27.172Z,99639.50
2018-07-13T05:43:29.697Z,99633.41
2018-07-13T05:46:32.229Z,99631.95
2018-07-13T05:49:34.803Z,99646.97
2018-07-13T05:52:37.399Z,99649.73
2018-07-13T05:55:39.845Z,99658.05
2018-07-13T05:58:42.374Z,99656.55
2018-07-13T06:01:44.859Z,99657.58
2018-07-13T06:04:47.337Z,99652.09
2018-07-13T06:07:49.802Z,99646.33
2018-07-13T06:10:52.349Z,99651.67
2018-07-13T06:13:55.109Z,99659.86
2018-07-13T06:16:57.609Z,99652.42
2018-07-13T06:20:00.059Z,99654.07
2018-07-13T06:23:02.511Z,99649.14
2018-07-13T06:26:04.880Z,99643.67
2018-07-13T06:29:07.466Z,99628.02
2018-07-13T06:32:09.986Z,99623.68
2018-07-13T06:35:12.372Z,99629.91
2018-07-13T06:38:14.843Z,99628.81
2018-07-13T06:41:17.316Z,99627.56
2018-07-13T06:44:19.709Z,99618.88
2018-07-13T06:47:22.201Z,99622.39
2018-07-13T06:50:24.673Z,99621.56
2018-07-13T06:53:27.085Z,99630.95
2018-07-13T06:56:29.840Z,99628.56
2018-07-13T06:59:32.451Z,99630.42
2018-07-13T07:02:40.258Z,99632.20
2018-07-13T07:06:15.610Z,99635.81
2018-07-13T07:09:18.248Z,99624.03
2018-07-13T07:14:31.234Z,99628.90
2018-07-13T07:17:34.611Z,99605.57
2018-07-13T07:20:42.431Z,99595.69
2018-07-13T07:23:44.760Z,99596.12
2018-07-13T07:26:47.184Z,99595.55
2018-07-13T07:29:49.858Z,99585.02
2018-07-13T07:32:52.312Z,99585.23
2018-07-13T07:35:54.593Z,99584.98
2018-07-13T07:38:58.962Z,99584.49
2018-07-13T07:42:05.738Z,99580.88
2018-07-13T07:45:08.182Z,99577.60
2018-07-13T07:48:10.472Z,99577.63
2018-07-13T07:51:16.404Z,99580.88
2018-07-13T07:54:24.111Z,99580.31
2018-07-13T07:57:26.655Z,99572.94
2018-07-13T08:00:29.186Z,99566.73
2018-07-13T08:03:31.715Z,99576.17
2018-07-13T08:06:34.397Z,99568.02
2018-07-13T08:09:37.006Z,99579.08
2018-07-13T08:12:41.568Z,99559.23
2018-07-13T08:15:47.265Z,99558.44
2018-07-13T08:18:51.848Z,99560.18
2018-07-13T08:21:54.463Z,99558.19
2018-07-13T08:24:58.066Z,99548.18
2018-07-13T08:28:06.991Z,99552.00
2018-07-13T08:31:10.765Z,99550.64
2018-07-13T08:34:14.384Z,99547.39
2018-07-13T08:37:16.661Z,99546.69
2018-07-13T08:40:19.024Z,99542.20
2018-07-13T08:43:21.341Z,99579.27
2018-07-13T08:46:23.817Z,99576.30
2018-07-13T08:49:28.263Z,99555.71
2018-07-13T08:52:30.627Z,99558.07
2018-07-13T08:55:33.024Z,99711.72
2018-07-13T08:58:43.115Z,99599.17
2018-07-13T09:01:45.637Z,99587.35
2018-07-13T09:04:48.003Z,99587.83
2018-07-13T09:07:50.295Z,99571.33
2018-07-13T09:10:52.761Z,99562.08
2018-07-13T09:14:02.242Z,99560.28
2018-07-13T09:17:04.625Z,99568.27
2018-07-13T09:20:11.835Z,99561.05
2018-07-13T09:23:14.227Z,99550.13
2018-07-13T09:26:17.565Z,99554.06
2018-07-13T09:29:20.250Z,99552.11
2018-07-13T09:32:22.775Z,99554.33
2018-07-13T09:35:28.443Z,99540.85
2018-07-13T09:38:30.938Z,99535.13
2018-07-13T09:41:33.229Z,99536.08
2018-07-13T09:44:35.557Z,99534.12
2018-07-13T09:47:37.937Z,99536.95
2018-07-13T09:50:40.250Z,99527.63
2018-07-13T09:53:46.339Z,99536.47
2018-07-13T09:56:50.174Z,99529.53
2018-07-13T09:59:52.462Z,99536.70
2018-07-13T10:02:54.893Z,99528.76
2018-07-13T10:05:58.550Z,99536.20
2018-07-13T10:09:01.232Z,99530.88
2018-07-13T10:12:03.768Z,99524.03
2018-07-13T10:15:06.561Z,99530.22
2018-07-13T10:18:09.330Z,99522.09
2018-07-13T10:21:13.004Z,99527.11
2018-07-13T10:24:16.208Z,99525.25
2018-07-13T10:27:18.956Z,99529.73
2018-07-13T10:30:21.644Z,99519.52
2018-07-13T10:33:24.390Z,99510.48
2018-07-13T10:36:27.169Z,99509.39
2018-07-13T10:39:29.830Z,99505.08
2018-07-13T10:42:32.603Z,99505.72
2018-07-13T10:45:35.276Z,99495.31
2018-07-13T10:48:38.834Z,99506.30
2018-07-13T10:51:41.436Z,99504.15
2018-07-13T10:54:47.820Z,99500.77
2018-07-13T10:57:50.371Z,99501.59
2018-07-13T11:00:53.124Z,99498.83
2018-07-13T11:03:57.869Z,99495.57
2018-07-13T11:07:00.511Z,99492.38
2018-07-13T11:10:03.191Z,99499.97
2018-07-13T11:13:05.832Z,99495.13
2018-07-13T11:16:08.455Z,99498.05
2018-07-13T11:19:10.981Z,99485.88
2018-07-13T11:22:13.638Z,99487.28
2018-07-13T11:25:16.245Z,99475.22
2018-07-13T11:28:19.217Z,99476.28
2018-07-13T11:31:21.740Z,99477.08
2018-07-13T11:34:24.382Z,99472.32
2018-07-13T11:37:27.996Z,99465.27
2018-07-13T11:40:30.463Z,99462.05
2018-07-13T11:43:33.194Z,99466.87
2018-07-13T11:46:36.012Z,99474.47
2018-07-13T11:49:38.487Z,99509.94
2018-07-13T11:52:41.172Z,99512.63
2018-07-13T11:55:43.887Z,99515.59
2018-07-13T11:58:46.542Z,99509.66
2018-07-13T12:01:50.316Z,99504.33
2018-07-13T12:04:52.957Z,99503.50
2018-07-13T12:07:55.593Z,99494.59
2018-07-13T12:10:57.990Z,99489.80
2018-07-13T12:14:00.319Z,99477.27
2018-07-13T12:17:02.928Z,99481.86
2018-07-13T12:20:05.676Z,99480.31
2018-07-13T12:23:08.434Z,99468.81
2018-07-13T12:26:12.108Z,99463.72
2018-07-13T12:29:14.749Z,99467.21
2018-07-13T12:32:17.432Z,99466.94
2018-07-13T12:35:19.681Z,99469.08
2018-07-13T12:38:25.513Z,99468.03
2018-07-13T12:41:29.903Z,99456.45
2018-07-13T12:44:32.242Z,99477.44
2018-07-13T12:47:34.631Z,99472.45
2018-07-13T12:50:38.324Z,99468.28
2018-07-13T12:53:40.880Z,99493.20
2018-07-13T12:56:43.487Z,99606.28
2018-07-13T12:59:46.204Z,99459.42
2018-07-13T13:03:19.667Z,99431.41
2018-07-13T13:06:26.032Z,99442.10
2018-07-13T13:09:28.578Z,99436.30
2018-07-13T13:12:32.454Z,99431.80
2018-07-13T13:15:36.227Z,99440.98
2018-07-13T13:18:39.870Z,99444.46
2018-07-13T13:21:42.610Z,99455.38
2018-07-13T13:24:45.223Z,99448.95
2018-07-13T13:27:48.066Z,99451.89
2018-07-13T13:30:50.606Z,99453.75
2018-07-13T13:33:53.205Z,99449.70
2018-07-13T13:36:56.891Z,99442.03
2018-07-13T13:39:59.212Z,99450.00
2018-07-13T13:43:01.601Z,99441.95
2018-07-13T13:46:05.047Z,99436.29
2018-07-13T13:49:07.551Z,99441.63
2018-07-13T13:52:10.312Z,99435.16
2018-07-13T13:55:14.015Z,99432.98
2018-07-13T13:58:16.688Z,99438.73
2018-07-13T14:01:19.244Z,99431.62
2018-07-13T14:04:21.723Z,99435.48
2018-07-13T14:07:24.516Z,99423.16
2018-07-13T14:10:27.372Z,99416.70
2018-07-13T14:13:29.915Z,99423.13
2018-07-13T14:16:32.644Z,99423.82
2018-07-13T14:19:35.203Z,99420.52
2018-07-13T14:22:37.836Z,99424.20
2018-07-13T14:25:40.566Z,99418.27
2018-07-13T14:28:43.236Z,99399.59
2018-07-13T14:31:45.902Z,99402.41
2018-07-13T14:34:48.516Z,99400.23
2018-07-13T14:37:51.538Z,99397.04
2018-07-13T14:40:54.378Z,99403.24
2018-07-13T14:43:57.036Z,99418.31
2018-07-13T14:46:59.875Z,99411.34
2018-07-13T14:50:02.232Z,99402.44
2018-07-13T14:53:04.828Z,99400.00
2018-07-13T14:56:07.420Z,99399.94
2018-07-13T14:59:10.199Z,99398.41
2018-07-13T15:02:12.799Z,99391.16
2018-07-13T15:05:15.492Z,99399.15
2018-07-13T15:08:18.195Z,99395.94
2018-07-13T15:11:21.737Z,99389.84
2018-07-13T15:14:24.534Z,99392.65
2018-07-13T15:17:26.998Z,99393.74
2018-07-13T15:20:29.697Z,99393.23
2018-07-13T15:23:32.385Z,99392.76
2018-07-13T15:26:35.061Z,99379.86
2018-07-13T15:29:37.755Z,99381.49
2018-07-13T15:32:40.403Z,99383.90
2018-07-13T15:35:43.078Z,99379.33
2018-07-13T15:38:45.771Z,99383.80
2018-07-13T15:41:48.275Z,99387.07
2018-07-13T15:44:50.825Z,99387.33
2018-07-13T15:47:53.495Z,99390.87
2018-07-13T15:50:55.881Z,99389.17
2018-07-13T15:53:58.246Z,99459.27
2018-07-13T15:57:01.075Z,99426.50
2018-07-13T16:00:07.306Z,99426.58
2018-07-13T16:03:09.629Z,99425.52
2018-07-13T16:06:12.049Z,99414.72
2018-07-13T16:09:15.043Z,99409.97
2018-07-13T16:12:19.459Z,99399.32
2018-07-13T16:15:21.775Z,99396.91
2018-07-13T16:18:24.132Z,99393.39
2018-07-13T16:21:26.457Z,99390.25
2018-07-13T16:24:28.820Z,99395.12
2018-07-13T16:27:31.066Z,99393.61
2018-07-13T16:30:52.300Z,99386.78
2018-07-13T16:33:58.719Z,99383.35
2018-07-13T16:37:02.121Z,99380.69
2018-07-13T16:40:04.529Z,99376.87
2018-07-13T16:43:06.848Z,99379.98
2018-07-13T16:46:09.327Z,99374.20
2018-07-13T16:49:12.997Z,99372.41
2018-07-13T16:52:15.574Z,99369.64
2018-07-13T16:55:18.210Z,99370.37
2018-07-13T16:58:20.978Z,99374.14
2018-07-13T17:01:23.269Z,99374.42
2018-07-13T17:04:25.636Z,99370.75
2018-07-13T17:07:35.390Z,99365.34
2018-07-13T17:10:37.800Z,99374.55
2018-07-13T17:13:40.169Z,99371.80
2018-07-13T17:16:46.257Z,99371.28
2018-07-13T17:19:48.866Z,99376.05
2018-07-13T17:22:51.226Z,99377.00
2018-07-13T17:25:53.586Z,99374.80
2018-07-13T17:28:56.023Z,99376.22
2018-07-13T17:32:00.633Z,99379.27
2018-07-13T17:35:04.315Z,99378.92
2018-07-13T17:38:07.040Z,99369.77
2018-07-13T17:41:11.629Z,99374.03
2018-07-13T17:44:15.086Z,99370.95
2018-07-13T17:47:21.343Z,99370.26
2018-07-13T17:50:23.687Z,99373.44
2018-07-13T17:53:26.061Z,99373.05
2018-07-13T17:56:28.389Z,99365.61
2018-07-13T17:59:32.704Z,99370.81
2018-07-13T18:02:35.568Z,99371.62
2018-07-13T18:05:37.944Z,99370.11
2018-07-13T18:08:40.505Z,99374.48
2018-07-13T18:11:42.982Z,99374.84
2018-07-13T18:14:45.416Z,99377.25
2018-07-13T18:17:48.001Z,99373.63
2018-07-13T18:20:50.769Z,99376.11
2018-07-13T18:24:00.850Z,99379.88
2018-07-13T18:27:03.602Z,99390.64
2018-07-13T18:30:06.295Z,99384.94
2018-07-13T18:33:08.969Z,99387.89
2018-07-13T18:36:12.040Z,99386.55
2018-07-13T18:39:14.381Z,99394.03
2018-07-13T18:42:16.733Z,99388.86
2018-07-13T18:45:19.303Z,99387.69
2018-07-13T18:48:22.020Z,99388.17
2018-07-13T18:51:24.734Z,99387.80
2018-07-13T18:54:28.061Z,99385.69
2018-07-13T19:00:32.703Z,99389.70
2018-07-13T19:03:35.322Z,99392.51
2018-07-13T19:06:37.891Z,99393.70
2018-07-13T19:09:40.438Z,99397.75
2018-07-13T19:12:43.030Z,99402.36
2018-07-13T19:15:45.573Z,99415.78
2018-07-13T19:18:49.078Z,99404.67
2018-07-13T19:21:51.447Z,99406.91
2018-07-13T19:24:54.047Z,99401.61
2018-07-13T19:27:56.579Z,99405.87
2018-07-13T19:30:59.304Z,99411.53
2018-07-13T19:34:01.803Z,99417.52
2018-07-13T19:37:04.442Z,99426.12
2018-07-13T19:40:07.099Z,99427.20
2018-07-13T19:43:09.551Z,99426.38
2018-07-13T19:46:11.935Z,99434.77
2018-07-13T19:49:14.464Z,99437.10
2018-07-13T19:52:17.052Z,99448.06
2018-07-13T19:55:19.751Z,99445.73
2018-07-13T19:58:22.302Z,99450.30
2018-07-13T20:02:27.561Z,99452.39
2018-07-13T20:05:30.009Z,99450.61
2018-07-13T20:08:32.574Z,99397.95
2018-07-13T20:11:35.232Z,99602.63
2018-07-13T20:14:38.000Z,99575.03
2018-07-13T20:17:40.676Z,99557.21
2018-07-13T20:20:43.314Z,99575.54
2018-07-13T20:23:45.842Z,99540.31
2018-07-13T20:26:48.430Z,99537.77
2018-07-13T20:29:51.094Z,99513.95
2018-07-13T20:32:54.770Z,99552.22
2018-07-13T20:35:57.351Z,99545.56
2018-07-13T20:39:01.002Z,99541.38
2018-07-13T20:42:03.661Z,99540.16
2018-07-13T20:45:06.263Z,99536.67
2018-07-13T20:48:10.775Z,99545.59
2018-07-13T20:51:13.434Z,99548.66
2018-07-13T20:54:16.024Z,99552.50
2018-07-13T20:57:18.720Z,99551.52
2018-07-13T21:01:24.068Z,99554.41
2018-07-13T21:04:26.728Z,99547.66
2018-07-13T21:07:29.308Z,99547.19
2018-07-13T21:10:31.945Z,99553.73
2018-07-13T21:13:34.550Z,99555.77
2018-07-13T21:16:37.285Z,99556.93
2018-07-13T21:19:39.895Z,99549.15
2018-07-13T21:22:42.516Z,99557.20
2018-07-13T21:25:45.121Z,99562.38
2018-07-13T21:28:47.985Z,99564.95
2018-07-13T21:31:50.545Z,99568.03
2018-07-13T21:34:53.299Z,99566.21
2018-07-13T21:37:55.914Z,99563.32
2018-07-13T21:40:58.456Z,99562.69
2018-07-13T21:44:01.060Z,99567.78
2018-07-13T21:47:03.607Z,99579.64
2018-07-13T21:50:06.488Z,99579.89
2018-07-13T21:53:08.939Z,99570.21
2018-07-13T21:56:11.554Z,99572.22
2018-07-13T21:59:14.173Z,99568.08
2018-07-13T22:02:16.893Z,99565.25
2018-07-13T22:05:19.517Z,99563.19
2018-07-13T22:08:22.027Z,99569.28
2018-07-13T22:11:24.628Z,99573.10
2018-07-13T22:14:27.174Z,99571.77
2018-07-13T22:17:29.886Z,99574.15
2018-07-13T22:20:32.555Z,99573.01
2018-07-13T22:23:35.947Z,99561.17
2018-07-13T22:26:38.437Z,99564.08
2018-07-13T22:29:41.063Z,99583.56
2018-07-13T22:32:44.346Z,99564.45
2018-07-13T22:35:46.917Z,99574.98
2018-07-13T22:38:49.205Z,99573.20
2018-07-13T22:41:51.699Z,99571.66
2018-07-13T22:44:54.129Z,99577.52
2018-07-13T22:47:57.051Z,99566.70
2018-07-13T22:50:59.801Z,99542.66
2018-07-13T22:54:02.386Z,99537.98
2018-07-13T22:57:04.893Z,99542.16
2018-07-13T23:00:07.791Z,99554.59
2018-07-13T23:03:10.193Z,99558.18
2018-07-13T23:06:12.736Z,99567.76
2018-07-13T23:09:15.594Z,99561.50
2018-07-13T23:12:18.284Z,99565.67
2018-07-13T23:15:21.837Z,99562.30
2018-07-13T23:18:25.213Z,99560.94
2018-07-13T23:21:28.654Z,99564.62
2018-07-13T23:24:32.166Z,99566.84
2018-07-13T23:27:36.134Z,99562.41
2018-07-13T23:30:39.566Z,99553.23
2018-07-13T23:33:42.982Z,99564.88
2018-07-13T23:36:46.390Z,99558.73
2018-07-13T23:39:49.740Z,99562.52
2018-07-13T23:42:52.953Z,99556.82
2018-07-13T23:45:56.220Z,99558.00
2018-07-13T23:48:59.394Z,99554.66
2018-07-13T23:52:02.194Z,99545.70
2018-07-13T23:55:04.951Z,99539.08
2018-07-13T23:58:07.579Z,99548.61
